Time;durP1;ratioP1;P1;durP2;ratioP2;P2;SDS_P1;SDS_P2;PMS_P1;PMS_P2;Temp;Humidity;BMP_temperature;BMP_pressure;BME280_temperature;BME280_humidity;BME280_pressure;Samples;Min_cycle;Max_cycle;Signal;HPM_P1;HPM_P2
2022/08/21 00:01:41;;;;;;;10.75;4.75;;;15.70;99.90;;;;;;5043532;28;20051;-83
2022/08/21 00:04:08;;;;;;;8.52;4.30;;;15.60;99.90;;;;;;5044796;28;20041;-83
2022/08/21 00:06:35;;;;;;;8.18;4.28;;;15.60;99.90;;;;;;5059283;28;20105;-83
2022/08/21 00:09:01;;;;;;;8.50;4.05;;;15.60;99.90;;;;;;5043219;28;20041;-84
2022/08/21 00:11:27;;;;;;;6.85;3.92;;;15.60;99.90;;;;;;5043103;28;20036;-83
2022/08/21 00:13:54;;;;;;;8.05;4.47;;;15.60;99.90;;;;;;5015591;28;20194;-84
2022/08/21 00:16:19;;;;;;;9.15;4.30;;;15.50;99.90;;;;;;5025737;28;20098;-83
2022/08/21 00:18:45;;;;;;;7.95;4.32;;;15.60;99.90;;;;;;5045097;28;20453;-84
2022/08/21 00:21:12;;;;;;;7.68;3.88;;;15.60;99.90;;;;;;5025450;28;20033;-84
2022/08/21 00:23:38;;;;;;;6.22;3.47;;;15.50;99.90;;;;;;5043368;28;20033;-83
2022/08/21 00:26:04;;;;;;;6.90;3.95;;;15.40;99.90;;;;;;5039743;28;20568;-83
2022/08/21 00:28:30;;;;;;;8.25;4.05;;;15.30;99.90;;;;;;5042945;28;20045;-83
2022/08/21 00:30:56;;;;;;;6.57;3.75;;;15.20;99.90;;;;;;5044848;28;20045;-83
2022/08/21 00:33:22;;;;;;;5.85;3.85;;;15.30;99.90;;;;;;5042205;28;20380;-83
2022/08/21 00:35:48;;;;;;;7.45;4.00;;;15.30;99.90;;;;;;5026696;28;20048;-83
2022/08/21 00:38:14;;;;;;;6.53;4.00;;;15.30;99.90;;;;;;5042833;28;20496;-83
2022/08/21 00:40:49;;;;;;;9.18;3.95;;;15.30;99.90;;;;;;5024926;28;20045;-84
2022/08/21 00:43:18;;;;;;;5.95;3.97;;;15.30;99.90;;;;;;5040250;28;20028;-83
2022/08/21 00:45:44;;;;;;;8.45;4.47;;;15.30;99.90;;;;;;5027175;28;20048;-83
2022/08/21 00:48:10;;;;;;;6.97;4.13;;;15.30;99.90;;;;;;5041884;28;20037;-83
2022/08/21 00:50:41;;;;;;;6.63;4.57;;;15.30;99.90;;;;;;5024670;28;20055;-84
2022/08/21 00:53:10;;;;;;;12.05;4.50;;;15.30;99.90;;;;;;5041259;28;20044;-83
2022/08/21 00:55:36;;;;;;;6.53;4.63;;;15.30;99.90;;;;;;5043645;28;20044;-83
2022/08/21 00:58:05;;;;;;;10.50;5.60;;;15.30;99.90;;;;;;5041663;28;20033;-83
2022/08/21 01:00:33;;;;;;;8.07;5.50;;;15.20;99.90;;;;;;5043468;28;20040;-83
2022/08/21 01:03:01;;;;;;;8.43;5.35;;;15.20;99.90;;;;;;5027023;28;20056;-83
2022/08/21 01:05:27;;;;;;;8.02;5.00;;;15.20;99.90;;;;;;5038949;28;20041;-84
2022/08/21 01:07:56;;;;;;;7.55;4.07;;;15.20;99.90;;;;;;5025715;28;20052;-82
2022/08/21 01:10:22;;;;;;;4.70;3.30;;;15.20;99.90;;;;;;5041776;28;20044;-83
2022/08/21 01:12:50;;;;;;;7.35;3.15;;;15.10;99.90;;;;;;5047068;28;21741;-83
2022/08/21 01:15:18;;;;;;;5.78;2.70;;;15.10;99.90;;;;;;5046580;28;20051;-83
2022/08/21 01:17:43;;;;;;;4.30;2.67;;;15.10;99.90;;;;;;5047534;28;20045;-82
2022/08/21 01:20:11;;;;;;;5.72;3.25;;;15.00;99.90;;;;;;5030231;28;20029;-83
2022/08/21 01:22:37;;;;;;;5.30;2.92;;;15.00;99.90;;;;;;5026985;28;20090;-83
2022/08/21 01:25:05;;;;;;;4.53;3.00;;;14.90;99.90;;;;;;5028753;28;20033;-84
2022/08/21 01:27:31;;;;;;;5.53;3.40;;;14.90;99.90;;;;;;5048303;28;20083;-83
2022/08/21 01:30:09;;;;;;;4.05;3.00;;;14.90;99.90;;;;;;5030467;28;20505;-83
2022/08/21 01:32:35;;;;;;;6.85;3.28;;;14.90;99.90;;;;;;5046443;28;20029;-83
2022/08/21 01:35:01;;;;;;;5.38;3.20;;;14.80;99.90;;;;;;5045748;28;20036;-82
2022/08/21 01:37:26;;;;;;;6.53;4.00;;;14.80;99.90;;;;;;5047782;28;20044;-83
2022/08/21 01:39:52;;;;;;;8.43;4.15;;;14.80;99.90;;;;;;5027719;28;20040;-84
2022/08/21 01:42:18;;;;;;;5.95;3.88;;;14.70;99.90;;;;;;5045816;28;20117;-83
2022/08/21 01:44:44;;;;;;;5.93;3.53;;;14.70;99.90;;;;;;5041640;28;20112;-85
2022/08/21 01:47:13;;;;;;;6.70;3.95;;;14.70;99.90;;;;;;5028235;28;20048;-84
2022/08/21 01:49:40;;;;;;;12.32;4.75;;;14.70;99.90;;;;;;5045891;28;20068;-83
2022/08/21 01:52:06;;;;;;;8.90;5.03;;;14.70;99.90;;;;;;5046938;28;20041;-84
2022/08/21 01:54:32;;;;;;;7.40;4.65;;;14.70;99.90;;;;;;5048056;28;20044;-83
2022/08/21 01:56:59;;;;;;;7.35;4.30;;;14.70;99.90;;;;;;5045106;28;20037;-84
2022/08/21 01:59:25;;;;;;;7.35;4.53;;;14.70;99.90;;;;;;5042105;28;20064;-84
2022/08/21 02:01:53;;;;;;;11.55;4.60;;;14.80;99.90;;;;;;5028675;28;20083;-84
2022/08/21 02:04:19;;;;;;;8.00;4.50;;;14.70;99.90;;;;;;5029058;28;20486;-83
2022/08/21 02:06:45;;;;;;;8.52;4.28;;;14.60;99.90;;;;;;5041608;28;20048;-83
2022/08/21 02:09:12;;;;;;;9.15;4.95;;;14.70;99.90;;;;;;5046107;28;20041;-83
2022/08/21 02:11:40;;;;;;;10.02;5.50;;;14.60;99.90;;;;;;5044185;28;20044;-83
2022/08/21 02:14:12;;;;;;;7.88;4.90;;;14.70;99.90;;;;;;5047182;28;20159;-83
2022/08/21 02:16:39;;;;;;;9.98;5.38;;;14.70;99.90;;;;;;5044294;28;20577;-84
2022/08/21 02:19:05;;;;;;;9.35;5.60;;;14.70;99.90;;;;;;5046210;28;20179;-83
2022/08/21 02:21:31;;;;;;;8.65;5.40;;;14.60;99.90;;;;;;5042076;28;20124;-83
2022/08/21 02:23:57;;;;;;;11.73;5.28;;;14.70;99.90;;;;;;5045917;28;20040;-84
2022/08/21 02:26:22;;;;;;;6.85;4.82;;;14.60;99.90;;;;;;5044626;28;20491;-83
2022/08/21 02:28:48;;;;;;;9.52;5.13;;;14.60;99.90;;;;;;5030310;28;20044;-83
2022/08/21 02:31:14;;;;;;;9.00;5.60;;;14.60;99.90;;;;;;5046598;28;20044;-84
2022/08/21 02:33:39;;;;;;;10.43;5.55;;;14.60;99.90;;;;;;5043038;28;20048;-84
2022/08/21 02:36:06;;;;;;;9.52;5.47;;;14.60;99.90;;;;;;5045053;28;20552;-83
2022/08/21 02:38:34;;;;;;;8.35;5.70;;;14.60;99.90;;;;;;5024705;28;20044;-84
2022/08/21 02:41:00;;;;;;;9.02;5.35;;;14.60;99.90;;;;;;5029447;28;20036;-84
2022/08/21 02:43:27;;;;;;;9.88;5.63;;;14.50;99.90;;;;;;5044429;28;20052;-83
2022/08/21 02:45:55;;;;;;;9.93;5.90;;;14.50;99.90;;;;;;5043406;28;20029;-83
2022/08/21 02:48:24;;;;;;;11.50;6.20;;;14.50;99.90;;;;;;5045629;28;20041;-85
2022/08/21 02:50:59;;;;;;;9.75;5.45;;;14.50;99.90;;;;;;5045653;28;20567;-84
2022/08/21 02:53:25;;;;;;;9.20;5.57;;;14.50;99.90;;;;;;5027369;28;20037;-83
2022/08/21 02:55:52;;;;;;;7.97;5.70;;;14.50;99.90;;;;;;5044855;28;20159;-84
2022/08/21 02:58:21;;;;;;;9.80;5.72;;;14.50;99.90;;;;;;5026837;28;20059;-83
2022/08/21 03:00:47;;;;;;;10.00;6.13;;;14.50;99.90;;;;;;5044671;28;20037;-83
2022/08/21 03:03:14;;;;;;;9.40;6.10;;;14.40;99.90;;;;;;5045005;28;20383;-84
2022/08/21 03:05:40;;;;;;;10.32;6.07;;;14.40;99.90;;;;;;5041751;28;20049;-84
2022/08/21 03:08:11;;;;;;;7.60;5.90;;;14.40;99.90;;;;;;5042122;28;20037;-84
2022/08/21 03:10:39;;;;;;;10.60;6.13;;;14.40;99.90;;;;;;5045293;28;20033;-84
2022/08/21 03:13:06;;;;;;;12.70;6.88;;;14.40;99.90;;;;;;5028411;28;20041;-84
2022/08/21 03:15:32;;;;;;;12.02;6.65;;;14.30;99.90;;;;;;5045650;28;20036;-83
2022/08/21 03:17:58;;;;;;;11.40;6.65;;;14.30;99.90;;;;;;5046725;28;20063;-84
2022/08/21 03:20:26;;;;;;;14.20;7.00;;;14.30;99.90;;;;;;5043563;28;20025;-84
2022/08/21 03:22:53;;;;;;;11.55;6.30;;;14.30;99.90;;;;;;5045190;28;20671;-85
2022/08/21 03:25:20;;;;;;;9.38;6.57;;;14.20;99.90;;;;;;5040448;28;20499;-84
2022/08/21 03:27:47;;;;;;;9.13;6.65;;;14.20;99.90;;;;;;5030662;28;20445;-84
2022/08/21 03:30:12;;;;;;;11.65;6.97;;;14.20;99.90;;;;;;5046035;28;20684;-84
2022/08/21 03:32:38;;;;;;;12.15;7.00;;;14.20;99.90;;;;;;5044776;28;20128;-84
2022/08/21 03:35:04;;;;;;;12.30;6.68;;;14.20;99.90;;;;;;5029932;28;20056;-84
2022/08/21 03:37:30;;;;;;;9.63;6.32;;;14.10;99.90;;;;;;5040795;28;20037;-84
2022/08/21 03:39:56;;;;;;;12.55;7.20;;;14.10;99.90;;;;;;5029933;28;20071;-84
2022/08/21 03:42:23;;;;;;;13.07;7.55;;;14.10;99.90;;;;;;5046953;28;20040;-85
2022/08/21 03:44:48;;;;;;;10.52;6.68;;;14.10;99.90;;;;;;5043056;28;20045;-84
2022/08/21 03:47:14;;;;;;;13.43;7.47;;;14.10;99.90;;;;;;5045414;28;20028;-84
2022/08/21 03:49:39;;;;;;;8.40;6.68;;;14.00;99.90;;;;;;5045821;28;20045;-84
2022/08/21 03:52:05;;;;;;;7.45;6.18;;;14.10;99.90;;;;;;5018842;28;20105;-85
2022/08/21 03:54:31;;;;;;;8.75;6.85;;;14.00;99.90;;;;;;5025143;28;20064;-85
2022/08/21 03:56:57;;;;;;;13.38;7.32;;;14.00;99.90;;;;;;5046376;28;20040;-85
2022/08/21 03:59:24;;;;;;;11.20;6.72;;;14.00;99.90;;;;;;5044751;28;20041;-85
2022/08/21 04:01:58;;;;;;;11.35;7.15;;;14.00;99.90;;;;;;5046268;28;20121;-85
2022/08/21 04:04:24;;;;;;;12.90;7.22;;;14.00;99.90;;;;;;5045016;28;20041;-85
2022/08/21 04:06:50;;;;;;;11.23;7.07;;;14.00;99.90;;;;;;5019685;28;20561;-85
2022/08/21 04:09:17;;;;;;;10.38;6.80;;;14.00;99.90;;;;;;5046957;28;20036;-85
2022/08/21 04:11:42;;;;;;;12.05;7.60;;;14.00;99.90;;;;;;5028937;28;20047;-85
2022/08/21 04:14:08;;;;;;;13.32;7.13;;;13.90;99.90;;;;;;5026220;28;20419;-85
2022/08/21 04:16:34;;;;;;;10.45;6.78;;;14.00;99.90;;;;;;5046811;28;20036;-85
2022/08/21 04:19:00;;;;;;;10.88;7.00;;;14.00;99.90;;;;;;5044330;28;20037;-85
2022/08/21 04:21:25;;;;;;;12.15;6.97;;;13.90;99.90;;;;;;5044420;28;20154;-87
2022/08/21 04:23:53;;;;;;;11.20;6.60;;;14.00;99.90;;;;;;5033472;28;20030;-84
2022/08/21 04:26:19;;;;;;;9.57;7.05;;;13.90;99.90;;;;;;5044663;28;20036;-86
2022/08/21 04:28:44;;;;;;;10.05;6.60;;;14.00;99.90;;;;;;5020702;28;20052;-84
2022/08/21 04:31:10;;;;;;;13.85;7.35;;;13.90;99.90;;;;;;5044429;28;20084;-86
2022/08/21 04:33:36;;;;;;;12.18;6.95;;;13.90;99.90;;;;;;5026795;28;20040;-85
2022/08/21 04:36:02;;;;;;;11.80;7.07;;;13.90;99.90;;;;;;5028628;28;20040;-85
2022/08/21 04:38:27;;;;;;;10.60;6.88;;;13.90;99.90;;;;;;5043454;28;20060;-85
2022/08/21 04:40:53;;;;;;;10.70;7.57;;;14.00;99.90;;;;;;5045038;28;20056;-85
2022/08/21 04:43:22;;;;;;;11.60;7.20;;;13.90;99.90;;;;;;5045318;28;20076;-85
2022/08/21 04:45:49;;;;;;;10.23;6.63;;;14.00;99.90;;;;;;5025224;28;20120;-85
2022/08/21 04:48:17;;;;;;;9.05;6.85;;;14.00;99.90;;;;;;5041393;28;20037;-84
2022/08/21 04:51:05;;;;;;;10.38;7.20;;;14.00;99.90;;;;;;5040270;28;20045;-85
2022/08/21 04:53:36;;;;;;;12.80;6.70;;;14.10;99.90;;;;;;5038537;28;20037;-84
2022/08/21 04:56:08;;;;;;;8.73;6.53;;;14.10;99.90;;;;;;5045914;28;20041;-85
2022/08/21 04:58:35;;;;;;;9.55;6.88;;;14.10;99.90;;;;;;5041955;28;20040;-84
2022/08/21 05:01:02;;;;;;;13.32;7.53;;;14.20;99.90;;;;;;5040628;28;20048;-85
2022/08/21 05:03:31;;;;;;;9.40;7.07;;;14.20;99.90;;;;;;5045907;28;20044;-85
2022/08/21 05:05:57;;;;;;;11.48;6.90;;;14.30;99.90;;;;;;5039782;28;20033;-84
2022/08/21 05:08:25;;;;;;;10.65;6.55;;;14.30;99.90;;;;;;5044069;28;20182;-84
2022/08/21 05:10:51;;;;;;;9.88;7.25;;;14.30;99.90;;;;;;5041869;28;20040;-84
2022/08/21 05:13:17;;;;;;;11.80;6.95;;;14.40;99.90;;;;;;5041920;28;20388;-83
2022/08/21 05:15:43;;;;;;;12.73;7.05;;;14.50;99.90;;;;;;5040835;28;20063;-83
2022/08/21 05:18:09;;;;;;;9.88;6.53;;;14.40;99.90;;;;;;5043643;28;20037;-84
2022/08/21 05:20:35;;;;;;;11.43;6.60;;;14.60;99.90;;;;;;5041600;28;20170;-84
2022/08/21 05:23:01;;;;;;;10.38;6.80;;;14.50;99.90;;;;;;5043933;28;20095;-84
2022/08/21 05:25:27;;;;;;;10.50;6.50;;;14.60;99.90;;;;;;5042644;28;20052;-82
2022/08/21 05:27:53;;;;;;;11.57;6.90;;;14.70;99.90;;;;;;5042733;28;20036;-83
2022/08/21 05:30:20;;;;;;;13.02;6.10;;;14.70;99.90;;;;;;5042525;28;20048;-84
2022/08/21 05:32:47;;;;;;;9.57;6.00;;;14.80;99.90;;;;;;5042815;28;20063;-83
2022/08/21 05:35:13;;;;;;;11.10;6.40;;;14.90;99.90;;;;;;5041902;28;20567;-84
2022/08/21 05:37:39;;;;;;;12.13;6.20;;;15.00;99.90;;;;;;5043527;28;20552;-84
2022/08/21 05:40:06;;;;;;;10.93;6.45;;;15.00;99.90;;;;;;5044543;28;20037;-84
2022/08/21 05:42:32;;;;;;;11.00;6.75;;;15.10;99.90;;;;;;5043178;28;20107;-83
2022/08/21 05:44:57;;;;;;;10.55;5.53;;;15.20;99.90;;;;;;5041683;28;20037;-83
2022/08/21 05:47:23;;;;;;;10.45;4.97;;;15.30;99.90;;;;;;5043509;28;20029;-83
2022/08/21 05:49:48;;;;;;;8.75;5.13;;;15.40;99.90;;;;;;5042693;28;20037;-84
2022/08/21 05:52:19;;;;;;;10.73;5.35;;;15.40;99.90;;;;;;5041323;28;20120;-82
2022/08/21 05:54:44;;;;;;;8.85;5.38;;;15.50;99.90;;;;;;5027085;28;20453;-83
2022/08/21 05:57:10;;;;;;;8.60;5.00;;;15.60;99.90;;;;;;5043363;28;20037;-83
2022/08/21 05:59:36;;;;;;;10.20;5.60;;;15.70;99.90;;;;;;5046882;28;20044;-83
2022/08/21 06:02:02;;;;;;;8.05;5.05;;;15.80;99.90;;;;;;5045618;28;20041;-83
2022/08/21 06:04:28;;;;;;;10.52;5.13;;;15.90;99.90;;;;;;5045211;28;20044;-84
2022/08/21 06:06:53;;;;;;;10.55;5.32;;;16.00;99.90;;;;;;5047721;28;20499;-83
2022/08/21 06:09:19;;;;;;;9.02;4.80;;;16.10;99.90;;;;;;5047616;28;20049;-84
2022/08/21 06:11:45;;;;;;;9.32;5.07;;;16.20;99.90;;;;;;5027848;28;20454;-83
2022/08/21 06:14:14;;;;;;;11.35;4.93;;;16.30;99.90;;;;;;5043133;28;20119;-83
2022/08/21 06:16:39;;;;;;;10.48;4.97;;;16.40;99.90;;;;;;5040935;28;20320;-84
2022/08/21 06:19:05;;;;;;;8.00;4.70;;;16.50;99.90;;;;;;5045758;28;20041;-83
2022/08/21 06:21:31;;;;;;;9.77;5.13;;;16.60;99.90;;;;;;5027592;28;20036;-83
2022/08/21 06:23:57;;;;;;;11.88;4.95;;;16.70;99.90;;;;;;5040415;28;20061;-82
2022/08/21 06:26:23;;;;;;;10.70;4.75;;;16.80;99.90;;;;;;5044881;28;20395;-83
2022/08/21 06:28:49;;;;;;;9.95;4.43;;;16.90;99.90;;;;;;5043260;28;20565;-83
2022/08/21 06:31:20;;;;;;;14.00;4.97;;;17.00;99.90;;;;;;5028057;28;20048;-84
2022/08/21 06:33:46;;;;;;;9.27;4.20;;;17.10;99.90;;;;;;5030079;28;20080;-82
2022/08/21 06:36:12;;;;;;;9.48;4.20;;;17.20;99.90;;;;;;5029100;28;20486;-82
2022/08/21 06:38:38;;;;;;;9.65;3.88;;;17.40;99.90;;;;;;5043531;28;20052;-83
2022/08/21 06:41:04;;;;;;;8.18;4.15;;;17.40;99.90;;;;;;5047047;28;20111;-84
2022/08/21 06:43:30;;;;;;;9.02;3.65;;;17.60;99.90;;;;;;5044222;28;20041;-84
2022/08/21 06:45:56;;;;;;;9.95;3.92;;;17.70;99.90;;;;;;5042063;28;20044;-82
2022/08/21 06:48:21;;;;;;;10.07;3.50;;;17.80;99.90;;;;;;5044900;28;20033;-83
2022/08/21 06:50:47;;;;;;;11.45;4.03;;;18.00;99.90;;;;;;5043632;28;20521;-82
2022/08/21 06:53:15;;;;;;;11.88;3.53;;;18.00;99.90;;;;;;5046295;28;20044;-83
2022/08/21 06:55:42;;;;;;;9.68;3.65;;;18.20;99.90;;;;;;5043847;28;20052;-84
2022/08/21 06:58:08;;;;;;;8.98;3.10;;;18.30;99.90;;;;;;5028903;28;20038;-82
2022/08/21 07:00:37;;;;;;;9.30;3.53;;;18.40;99.90;;;;;;5046092;28;20059;-83
2022/08/21 07:03:03;;;;;;;11.10;3.20;;;18.60;99.90;;;;;;5045687;28;20043;-82
2022/08/21 07:05:30;;;;;;;8.10;3.17;;;18.60;99.90;;;;;;5027818;28;20119;-81
2022/08/21 07:07:56;;;;;;;11.00;2.83;;;18.80;99.90;;;;;;5026755;28;20072;-82
2022/08/21 07:10:23;;;;;;;8.90;3.00;;;18.90;99.90;;;;;;5030854;28;20033;-83
2022/08/21 07:12:50;;;;;;;7.53;2.85;;;19.00;99.90;;;;;;5043998;28;20493;-82
2022/08/21 07:15:16;;;;;;;7.30;2.63;;;19.10;99.90;;;;;;5018140;28;20040;-81
2022/08/21 07:17:42;;;;;;;10.25;3.15;;;19.20;99.90;;;;;;5045598;28;20589;-81
2022/08/21 07:20:08;;;;;;;8.55;2.70;;;19.20;99.90;;;;;;5043559;28;20041;-84
2022/08/21 07:22:35;;;;;;;8.77;3.08;;;19.30;99.90;;;;;;5043854;28;20033;-81
2022/08/21 07:25:01;;;;;;;10.88;3.15;;;19.40;99.90;;;;;;5042735;28;20045;-81
2022/08/21 07:27:27;;;;;;;12.10;2.75;;;19.50;99.90;;;;;;5044425;28;20033;-83
2022/08/21 07:29:52;;;;;;;7.63;2.80;;;19.60;99.90;;;;;;5044124;28;20044;-82
2022/08/21 07:32:18;;;;;;;6.97;2.63;;;19.70;99.90;;;;;;5043037;28;20041;-82
2022/08/21 07:34:44;;;;;;;6.97;2.28;;;19.80;99.90;;;;;;5044868;28;20060;-81
2022/08/21 07:37:09;;;;;;;7.57;2.65;;;19.90;99.90;;;;;;5044745;28;20482;-82
2022/08/21 07:39:36;;;;;;;9.75;2.63;;;20.00;99.90;;;;;;5017313;28;20103;-82
2022/08/21 07:42:02;;;;;;;8.27;2.33;;;20.10;99.90;;;;;;5041435;28;20033;-83
2022/08/21 07:44:28;;;;;;;6.68;2.30;;;20.20;99.90;;;;;;5044230;28;20055;-82
2022/08/21 07:46:54;;;;;;;6.50;2.45;;;20.20;99.90;;;;;;5042029;28;20040;-82
2022/08/21 07:49:19;;;;;;;8.20;2.42;;;20.30;99.90;;;;;;5042846;28;20392;-82
2022/08/21 07:51:46;;;;;;;8.48;2.50;;;20.40;99.90;;;;;;5034434;28;20450;-83
2022/08/21 07:54:11;;;;;;;4.65;2.00;;;20.40;99.90;;;;;;5049463;28;20048;-82
2022/08/21 07:56:37;;;;;;;7.35;1.92;;;20.50;99.90;;;;;;5051069;28;20120;-83
2022/08/21 07:59:02;;;;;;;6.40;2.22;;;20.60;99.90;;;;;;5051130;28;20128;-81
2022/08/21 08:01:28;;;;;;;8.20;2.30;;;20.60;99.90;;;;;;5051223;28;20037;-83
2022/08/21 08:03:54;;;;;;;7.93;2.40;;;20.80;99.90;;;;;;5034803;28;20076;-79
2022/08/21 08:06:20;;;;;;;6.57;1.95;;;20.80;99.90;;;;;;5051340;28;20069;-83
2022/08/21 08:08:47;;;;;;;9.65;2.42;;;20.80;99.90;;;;;;5052067;28;20079;-80
2022/08/21 08:11:15;;;;;;;8.77;2.13;;;20.90;99.90;;;;;;5052112;28;20170;-81
2022/08/21 08:13:47;;;;;;;7.57;2.10;;;21.10;99.90;;;;;;5051599;28;20060;-80
2022/08/21 08:16:13;;;;;;;6.65;2.15;;;21.20;99.90;;;;;;5051590;28;20040;-82
2022/08/21 08:18:41;;;;;;;5.95;1.90;;;21.30;99.90;;;;;;5050571;28;20036;-82
2022/08/21 08:21:07;;;;;;;10.13;2.50;;;21.40;99.90;;;;;;5051441;28;20390;-79
2022/08/21 08:23:32;;;;;;;8.25;2.00;;;21.50;99.90;;;;;;5032557;28;20104;-80
2022/08/21 08:25:59;;;;;;;6.68;2.35;;;21.60;99.90;;;;;;5048676;28;20045;-82
2022/08/21 08:28:25;;;;;;;6.55;2.47;;;21.60;99.90;;;;;;5029281;28;20075;-81
2022/08/21 08:30:51;;;;;;;8.07;2.30;;;21.60;99.90;;;;;;5025399;28;20033;-81
2022/08/21 08:33:17;;;;;;;9.38;2.42;;;21.70;99.90;;;;;;5047063;28;20040;-79
2022/08/21 08:35:47;;;;;;;7.40;2.10;;;21.80;99.90;;;;;;5049058;28;20048;-82
2022/08/21 08:38:18;;;;;;;7.28;2.53;;;21.80;99.90;;;;;;5047838;28;20041;-82
2022/08/21 08:40:52;;;;;;;6.90;2.47;;;21.90;99.90;;;;;;5047093;28;20052;-82
2022/08/21 08:43:19;;;;;;;4.80;2.03;;;21.80;99.90;;;;;;5032259;28;20403;-80
2022/08/21 08:45:50;;;;;;;9.57;2.55;;;21.90;99.90;;;;;;5034078;28;20040;-81
2022/08/21 08:48:31;;;;;;;10.13;2.50;;;21.90;99.90;;;;;;5051369;28;20487;-82
2022/08/21 08:51:00;;;;;;;10.85;2.65;;;22.00;99.90;;;;;;5051292;28;20065;-83
2022/08/21 08:53:44;;;;;;;9.63;2.60;;;22.10;99.90;;;;;;5050288;28;20041;-81
2022/08/21 08:56:10;;;;;;;12.00;3.00;;;22.10;99.90;;;;;;5050805;28;20045;-81
2022/08/21 08:58:43;;;;;;;11.75;3.03;;;22.10;99.90;;;;;;5049282;28;20064;-81
2022/08/21 09:01:17;;;;;;;10.18;2.40;;;22.10;99.90;;;;;;5033543;28;20048;-81
2022/08/21 09:03:49;;;;;;;10.50;2.10;;;22.10;99.90;;;;;;5034518;28;20044;-80
2022/08/21 09:06:53;;;;;;;7.55;2.53;;;22.20;99.90;;;;;;5050774;28;20064;-81
2022/08/21 09:09:36;;;;;;;10.60;3.07;;;22.40;99.90;;;;;;5022864;28;20049;-81
2022/08/21 09:12:20;;;;;;;10.45;2.67;;;22.50;99.90;;;;;;5034319;28;20044;-82
2022/08/21 09:15:21;;;;;;;10.02;2.53;;;22.60;99.90;;;;;;5048293;28;20588;-81
2022/08/21 09:17:47;;;;;;;8.30;2.25;;;22.70;99.90;;;;;;5049672;28;20099;-81
2022/08/21 09:20:18;;;;;;;8.63;2.70;;;22.60;99.90;;;;;;5050802;28;20445;-81
2022/08/21 09:23:15;;;;;;;12.27;2.60;;;22.30;99.90;;;;;;5034002;28;20041;-81
2022/08/21 09:26:18;;;;;;;12.32;3.15;;;22.10;99.90;;;;;;5047596;28;20040;-81
2022/08/21 09:28:44;;;;;;;9.45;2.67;;;21.80;99.90;;;;;;5013594;28;20529;-82
2022/08/21 09:31:22;;;;;;;9.32;2.70;;;21.70;99.90;;;;;;5052573;28;20090;-82
2022/08/21 09:33:48;;;;;;;8.25;2.40;;;21.70;99.90;;;;;;5057261;28;20033;-81
2022/08/21 09:36:25;;;;;;;11.88;2.70;;;21.90;99.90;;;;;;5023854;28;20095;-83
2022/08/21 09:38:54;;;;;;;9.27;2.08;;;22.20;99.90;;;;;;5045640;28;20094;-81
2022/08/21 09:41:28;;;;;;;7.30;2.22;;;22.30;99.90;;;;;;5054713;28;20039;-81
2022/08/21 09:43:54;;;;;;;9.73;2.47;;;22.30;99.90;;;;;;5053833;28;20036;-81
2022/08/21 09:46:22;;;;;;;6.97;2.22;;;22.20;99.90;;;;;;5053359;28;20045;-81
2022/08/21 09:48:52;;;;;;;6.85;2.05;;;22.30;99.90;;;;;;5054256;28;20040;-80
2022/08/21 09:51:25;;;;;;;9.70;2.55;;;22.40;99.90;;;;;;5054473;28;20071;-81
2022/08/21 09:54:18;;;;;;;8.55;2.40;;;22.60;99.90;;;;;;5037463;28;20045;-80
2022/08/21 09:59:43;;;;;;;10.23;2.22;;;22.90;99.90;;;;;;5054802;28;20158;-81
2022/08/21 10:02:21;;;;;;;10.52;2.55;;;23.10;99.90;;;;;;5054639;28;20044;-80
2022/08/21 10:04:58;;;;;;;8.63;2.10;;;23.10;99.90;;;;;;5038190;28;20438;-83
2022/08/21 10:07:26;;;;;;;13.63;2.60;;;23.20;99.90;;;;;;5021456;28;20044;-81
2022/08/21 10:10:02;;;;;;;8.10;2.03;;;23.20;99.90;;;;;;5034230;28;20045;-80
2022/08/21 10:12:40;;;;;;;6.63;2.30;;;23.00;99.90;;;;;;5050446;28;20048;-84
2022/08/21 10:15:34;;;;;;;7.93;2.42;;;23.10;99.90;;;;;;5053506;28;20041;-82
2022/08/21 10:18:17;;;;;;;9.45;2.13;;;23.40;99.90;;;;;;5053940;28;20548;-82
2022/08/21 10:21:04;;;;;;;5.77;1.67;;;23.40;99.90;;;;;;5039438;28;20446;-81
2022/08/21 10:23:50;;;;;;;7.00;1.65;;;23.50;99.90;;;;;;5054156;28;20283;-83
2022/08/21 10:26:45;;;;;;;8.13;2.65;;;23.70;99.90;;;;;;5054140;28;20045;-84
2022/08/21 10:29:33;;;;;;;12.63;2.78;;;23.60;99.90;;;;;;5054560;28;20040;-81
2022/08/21 10:32:19;;;;;;;5.95;2.15;;;23.30;99.90;;;;;;5053696;28;20132;-82
2022/08/21 10:35:10;;;;;;;5.43;1.83;;;23.10;99.90;;;;;;5054294;28;20048;-83
2022/08/21 10:37:51;;;;;;;6.85;1.90;;;22.80;99.90;;;;;;5053822;28;20045;-81
2022/08/21 10:40:36;;;;;;;7.40;2.22;;;22.60;99.90;;;;;;5037898;28;20037;-81
2022/08/21 10:43:15;;;;;;;8.23;2.08;;;22.40;99.90;;;;;;5053728;28;20503;-81
2022/08/21 10:45:52;;;;;;;12.60;1.98;;;22.30;99.90;;;;;;5053433;28;20029;-81
2022/08/21 10:48:35;;;;;;;9.07;2.15;;;22.20;99.90;;;;;;5053647;28;20036;-80
2022/08/21 10:51:10;;;;;;;12.00;2.20;;;22.10;99.90;;;;;;5054199;28;20106;-82
2022/08/21 10:54:09;;;;;;;7.13;2.83;;;22.10;99.90;;;;;;5035652;28;20045;-84
2022/08/21 10:56:40;;;;;;;7.38;2.17;;;21.90;99.90;;;;;;5050076;28;20049;-84
2022/08/21 10:59:22;;;;;;;8.70;2.20;;;21.70;99.90;;;;;;5035397;28;20126;-84
2022/08/21 11:02:19;;;;;;;7.28;2.67;;;21.50;99.90;;;;;;5052354;28;20073;-83
2022/08/21 11:04:59;;;;;;;5.65;2.00;;;21.40;99.90;;;;;;5035371;28;20084;-83
2022/08/21 11:07:40;;;;;;;8.90;2.80;;;21.30;99.90;;;;;;5051859;28;20048;-83
2022/08/21 11:10:13;;;;;;;7.05;2.30;;;21.30;99.90;;;;;;5052076;28;20127;-83
2022/08/21 11:12:58;;;;;;;9.18;2.88;;;21.40;99.90;;;;;;5051964;28;20041;-83
2022/08/21 11:15:45;;;;;;;8.95;2.72;;;21.40;99.90;;;;;;5035123;28;20036;-83
2022/08/21 11:18:29;;;;;;;8.75;2.60;;;21.40;99.90;;;;;;5050948;28;20045;-83
2022/08/21 11:20:58;;;;;;;;;;;21.40;99.90;;;;;;5051758;28;20044;-84
2022/08/21 11:23:50;;;;;;;9.10;2.35;;;21.30;99.90;;;;;;5051724;28;19964;-83
2022/08/21 11:26:45;;;;;;;8.18;2.45;;;21.30;99.90;;;;;;5051717;28;20041;-83
2022/08/21 11:29:23;;;;;;;6.18;2.38;;;21.30;99.90;;;;;;5033672;28;20052;-83
2022/08/21 11:31:55;;;;;;;8.05;2.85;;;21.30;99.90;;;;;;5049785;28;20036;-83
2022/08/21 11:34:46;;;;;;;8.95;2.42;;;21.30;99.90;;;;;;5051032;28;20051;-83
2022/08/21 11:37:34;;;;;;;9.27;2.47;;;21.60;99.90;;;;;;5051292;28;20419;-82
2022/08/21 11:40:26;;;;;;;7.40;2.35;;;22.10;99.90;;;;;;5051420;28;20037;-81
2022/08/21 11:43:06;;;;;;;9.63;2.58;;;22.90;99.90;;;;;;5034886;28;20094;-82
2022/08/21 11:45:40;;;;;;;7.72;2.10;;;23.60;99.90;;;;;;5051529;28;20037;-83
2022/08/21 11:48:20;;;;;;;8.07;2.40;;;23.90;99.90;;;;;;5034312;28;20073;-81
2022/08/21 11:50:48;;;;;;;7.18;2.25;;;23.90;99.90;;;;;;5031651;28;20041;-83
2022/08/21 11:53:50;;;;;;;4.63;1.95;;;23.70;99.90;;;;;;5050195;28;20514;-82
2022/08/21 11:56:44;;;;;;;8.48;2.45;;;23.50;99.90;;;;;;5051241;28;20045;-82
2022/08/21 11:59:20;;;;;;;4.90;2.13;;;23.40;99.90;;;;;;5051097;28;20430;-82
2022/08/21 12:01:48;;;;;;;6.72;1.85;;;23.30;99.90;;;;;;5050852;28;20039;-82
2022/08/21 12:04:27;;;;;;;8.38;2.40;;;23.50;99.90;;;;;;5051368;28;20041;-82
2022/08/21 12:06:53;;;;;;;8.60;2.10;;;23.60;99.90;;;;;;5052434;28;20041;-81
2022/08/21 12:09:25;;;;;;;8.60;2.30;;;23.80;99.90;;;;;;5051542;28;20075;-81
2022/08/21 12:12:22;;;;;;;7.75;2.00;;;23.90;99.90;;;;;;5034130;28;20047;-82
2022/08/21 12:14:49;;;;;;;9.07;2.20;;;24.10;99.90;;;;;;5051587;28;20435;-82
2022/08/21 12:17:21;;;;;;;8.43;2.05;;;24.10;99.90;;;;;;5051567;28;20049;-82
2022/08/21 12:19:58;;;;;;;6.95;2.00;;;24.00;99.90;;;;;;5051253;28;20142;-82
2022/08/21 12:22:37;;;;;;;7.55;2.40;;;24.00;99.90;;;;;;5061460;28;20032;-82
2022/08/21 12:25:11;;;;;;;6.38;1.80;;;24.20;99.90;;;;;;5070574;28;20036;-82
2022/08/21 12:27:47;;;;;;;5.32;2.00;;;24.40;99.90;;;;;;5037182;28;20037;-82
2022/08/21 12:30:28;;;;;;;7.07;2.10;;;24.20;99.90;;;;;;5051698;28;20041;-81
2022/08/21 12:33:01;;;;;;;6.07;2.10;;;23.80;99.90;;;;;;5069421;28;20047;-81
2022/08/21 12:35:31;;;;;;;;;;;23.60;99.90;;;;;;5071104;28;20074;-82
2022/08/21 12:38:15;;;;;;;8.13;2.13;;;23.30;99.90;;;;;;5054452;28;20394;-80
2022/08/21 12:40:47;;;;;;;5.90;1.92;;;23.20;99.90;;;;;;5065385;28;20478;-81
2022/08/21 12:43:30;;;;;;;5.20;2.10;;;23.30;99.90;;;;;;5070775;28;20039;-81
2022/08/21 12:45:58;;;;;;;10.70;1.95;;;23.50;99.90;;;;;;5069244;28;20040;-82
2022/08/21 12:48:31;;;;;;;5.32;1.88;;;23.60;99.90;;;;;;5069689;28;20051;-81
2022/08/21 12:51:15;;;;;;;6.85;1.70;;;23.80;99.90;;;;;;5053526;28;20086;-82
2022/08/21 12:53:53;;;;;;;7.45;1.63;;;23.90;99.90;;;;;;5069946;28;20457;-82
2022/08/21 12:56:29;;;;;;;6.70;1.80;;;24.00;99.90;;;;;;5064039;28;20123;-82
2022/08/21 12:59:05;;;;;;;7.15;1.83;;;24.00;99.90;;;;;;5051527;28;20091;-82
2022/08/21 13:01:38;;;;;;;6.88;2.10;;;24.00;99.90;;;;;;5050797;28;20064;-81
2022/08/21 13:04:09;;;;;;;7.50;1.90;;;24.10;99.90;;;;;;5052208;28;20033;-82